createdAt,value
2019-03-31T00:00:44.678Z,100272.55
2019-03-31T00:03:10.840Z,100277.63
2019-03-31T00:05:37.538Z,100276.42
2019-03-31T00:08:03.884Z,100269.05
2019-03-31T00:10:30.026Z,100267.80
2019-03-31T00:12:56.199Z,100260.99
2019-03-31T00:15:22.369Z,100257.78
2019-03-31T00:17:48.506Z,100266.95
2019-03-31T00:20:14.676Z,100272.22
2019-03-31T00:22:40.835Z,100271.02
2019-03-31T00:25:07.360Z,100266.89
2019-03-31T00:27:33.496Z,100268.66
2019-03-31T00:29:59.669Z,100269.94
2019-03-31T00:32:25.844Z,100264.95
2019-03-31T00:34:52.063Z,100266.91
2019-03-31T00:37:18.219Z,100269.44
2019-03-31T00:39:44.376Z,100273.80
2019-03-31T00:42:10.891Z,100277.44
2019-03-31T00:44:37.047Z,100276.39
2019-03-31T00:47:03.210Z,100279.30
2019-03-31T00:49:29.370Z,100278.43
2019-03-31T00:51:55.591Z,100276.66
2019-03-31T00:54:21.796Z,100278.33
2019-03-31T00:56:47.959Z,100276.06
2019-03-31T00:59:14.254Z,100273.33
2019-03-31T01:01:45.491Z,100269.47
2019-03-31T01:04:12.732Z,100273.91
2019-03-31T01:06:39.502Z,100268.73
2019-03-31T01:09:18.582Z,100278.43
2019-03-31T01:11:46.715Z,100283.17
2019-03-31T01:14:12.936Z,100278.38
2019-03-31T01:16:39.101Z,100278.31
2019-03-31T01:19:06.048Z,100276.44
2019-03-31T01:21:32.209Z,100274.45
2019-03-31T01:23:58.478Z,100274.78
2019-03-31T01:26:24.736Z,100276.05
2019-03-31T01:28:51.000Z,100272.88
2019-03-31T01:31:17.746Z,100275.66
2019-03-31T01:33:43.927Z,100274.95
2019-03-31T01:36:10.203Z,100275.60
2019-03-31T01:38:36.367Z,100275.88
2019-03-31T01:41:02.843Z,100273.69
2019-03-31T01:43:28.995Z,100275.81
2019-03-31T01:45:55.250Z,100275.94
2019-03-31T01:48:21.425Z,100279.90
2019-03-31T01:50:47.688Z,100273.28
2019-03-31T01:53:13.854Z,100280.66
2019-03-31T01:55:39.991Z,100279.77
2019-03-31T01:58:06.286Z,100283.67
2019-03-31T02:00:40.743Z,100278.94
2019-03-31T02:03:07.352Z,100285.30
2019-03-31T02:05:33.497Z,100283.22
2019-03-31T02:07:59.674Z,100287.49
2019-03-31T02:10:25.845Z,100283.92
2019-03-31T02:12:52.014Z,100284.69
2019-03-31T02:15:18.164Z,100285.02
2019-03-31T02:17:44.353Z,100283.36
2019-03-31T02:20:10.520Z,100285.34
2019-03-31T02:22:36.675Z,100284.80
2019-03-31T02:25:04.419Z,100281.81
2019-03-31T02:27:30.590Z,100286.27
2019-03-31T02:29:56.733Z,100286.92
2019-03-31T02:32:24.685Z,100289.73
2019-03-31T02:34:50.949Z,100280.99
2019-03-31T02:37:17.106Z,100291.59
2019-03-31T02:39:43.267Z,100290.28
2019-03-31T02:42:09.412Z,100288.14
2019-03-31T02:44:35.701Z,100296.00
2019-03-31T02:47:01.833Z,100284.56
2019-03-31T02:49:28.105Z,100280.04
2019-03-31T02:51:54.339Z,100289.17
2019-03-31T02:54:20.649Z,100278.73
2019-03-31T02:56:47.374Z,100281.20
2019-03-31T02:59:15.275Z,100285.94
2019-03-31T03:01:41.822Z,100281.41
2019-03-31T03:04:08.781Z,100273.33
2019-03-31T03:06:35.288Z,100280.37
2019-03-31T03:09:04.967Z,100281.95
2019-03-31T03:11:31.476Z,100278.95
2019-03-31T03:14:03.867Z,100284.85
2019-03-31T03:16:30.057Z,100283.31
2019-03-31T03:18:56.260Z,100287.97
2019-03-31T03:21:24.699Z,100292.45
2019-03-31T03:23:51.067Z,100289.14
2019-03-31T03:26:17.425Z,100286.42
2019-03-31T03:28:43.658Z,100289.19
2019-03-31T03:31:15.294Z,100289.78
2019-03-31T03:33:38.414Z,100295.66
2019-03-31T03:36:04.584Z,100295.08
2019-03-31T03:38:30.796Z,100300.81
2019-03-31T03:40:57.009Z,100306.70
2019-03-31T03:43:23.153Z,100302.64
2019-03-31T03:45:49.384Z,100301.76
2019-03-31T03:48:15.604Z,100300.28
2019-03-31T03:50:41.898Z,100303.75
2019-03-31T03:53:08.108Z,100303.66
2019-03-31T03:55:34.333Z,100302.55
2019-03-31T03:58:00.472Z,100308.37
2019-03-31T04:00:26.997Z,100314.16
2019-03-31T04:02:53.122Z,100317.19
2019-03-31T04:05:19.326Z,100318.34
2019-03-31T04:07:45.561Z,100321.36
2019-03-31T04:10:43.755Z,100317.70
2019-03-31T04:13:09.905Z,100318.89
2019-03-31T04:15:36.110Z,100317.50
2019-03-31T04:18:02.256Z,100324.59
2019-03-31T04:20:28.473Z,100328.55
2019-03-31T04:22:54.621Z,100324.94
2019-03-31T04:25:20.877Z,100324.77
2019-03-31T04:27:47.028Z,100323.45
2019-03-31T04:30:13.330Z,100327.95
2019-03-31T04:32:39.488Z,100333.52
2019-03-31T04:35:25.575Z,100341.53
2019-03-31T04:37:51.929Z,100338.44
2019-03-31T04:40:18.119Z,100336.06
2019-03-31T04:42:44.279Z,100341.71
2019-03-31T04:45:10.694Z,100337.63
2019-03-31T04:47:37.119Z,100335.54
2019-03-31T04:50:03.554Z,100340.43
2019-03-31T04:52:29.809Z,100338.34
2019-03-31T04:54:56.014Z,100351.63
2019-03-31T04:57:22.158Z,100348.19
2019-03-31T04:59:48.391Z,100352.62
2019-03-31T05:02:14.560Z,100357.00
2019-03-31T05:04:41.004Z,100355.39
2019-03-31T05:07:07.157Z,100363.74
2019-03-31T05:09:33.382Z,100365.16
2019-03-31T05:11:59.549Z,100367.95
2019-03-31T05:14:25.691Z,100371.70
2019-03-31T05:16:51.937Z,100376.47
2019-03-31T05:19:18.080Z,100380.25
2019-03-31T05:21:44.303Z,100377.97
2019-03-31T05:24:10.453Z,100382.70
2019-03-31T05:26:36.969Z,100380.94
2019-03-31T05:29:03.104Z,100385.98
2019-03-31T05:31:29.329Z,100390.53
2019-03-31T05:33:55.790Z,100394.88
2019-03-31T05:36:21.991Z,100396.42
2019-03-31T05:38:48.150Z,100395.73
2019-03-31T05:41:14.358Z,100397.39
2019-03-31T05:43:40.543Z,100396.21
2019-03-31T05:46:06.747Z,100398.59
2019-03-31T05:48:32.891Z,100403.80
2019-03-31T05:50:59.165Z,100403.77
2019-03-31T05:53:25.327Z,100403.62
2019-03-31T05:55:51.521Z,100410.27
2019-03-31T05:58:17.664Z,100408.52
2019-03-31T06:00:44.919Z,100409.78
2019-03-31T06:03:11.114Z,100407.53
2019-03-31T06:05:37.411Z,100411.41
2019-03-31T06:08:04.158Z,100416.57
2019-03-31T06:10:30.460Z,100415.98
2019-03-31T06:12:56.609Z,100415.67
2019-03-31T06:15:24.502Z,100420.03
2019-03-31T06:17:50.642Z,100423.20
2019-03-31T06:20:16.871Z,100422.18
2019-03-31T06:22:43.135Z,100419.64
2019-03-31T06:25:09.447Z,100413.23
2019-03-31T06:27:35.680Z,100414.11
2019-03-31T06:30:04.909Z,100413.87
2019-03-31T06:32:31.079Z,100410.25
2019-03-31T06:34:57.720Z,100417.55
2019-03-31T06:37:23.871Z,100410.77
2019-03-31T06:39:50.097Z,100416.77
2019-03-31T06:42:16.297Z,100423.56
2019-03-31T06:44:42.435Z,100424.91
2019-03-31T06:47:08.658Z,100425.44
2019-03-31T06:49:34.804Z,100422.84
2019-03-31T06:52:01.091Z,100428.55
2019-03-31T06:54:27.315Z,100431.08
2019-03-31T06:56:53.530Z,100432.81
2019-03-31T06:59:19.713Z,100434.37
2019-03-31T07:01:45.930Z,100439.11
2019-03-31T07:04:12.071Z,100439.00
2019-03-31T07:06:38.313Z,100433.66
2019-03-31T07:09:05.188Z,100438.70
2019-03-31T07:11:31.463Z,100441.45
2019-03-31T07:13:57.596Z,100438.05
2019-03-31T07:16:23.815Z,100443.22
2019-03-31T07:18:49.958Z,100449.96
2019-03-31T07:21:16.175Z,100453.16
2019-03-31T07:23:42.306Z,100458.70
2019-03-31T07:26:08.512Z,100462.02
2019-03-31T07:28:34.675Z,100469.67
2019-03-31T07:31:00.881Z,100467.46
2019-03-31T07:33:27.031Z,100467.58
2019-03-31T07:35:53.225Z,100471.05
2019-03-31T07:38:19.634Z,100474.51
2019-03-31T07:40:46.245Z,100476.14
2019-03-31T07:43:12.728Z,100477.45
2019-03-31T07:45:39.018Z,100482.02
2019-03-31T07:48:08.140Z,100481.16
2019-03-31T07:50:33.949Z,100474.53
2019-03-31T07:53:02.910Z,100477.93
2019-03-31T07:55:29.056Z,100477.80
2019-03-31T07:57:55.264Z,100470.80
2019-03-31T08:00:23.495Z,100470.96
2019-03-31T08:02:49.742Z,100473.94
2019-03-31T08:05:16.284Z,100473.88
2019-03-31T08:07:42.487Z,100476.92
2019-03-31T08:10:11.441Z,100482.19
2019-03-31T08:12:37.764Z,100476.75
2019-03-31T08:15:06.721Z,100479.22
2019-03-31T08:17:36.575Z,100485.89
2019-03-31T08:20:09.930Z,100482.77
2019-03-31T08:22:36.123Z,100484.66
2019-03-31T08:25:04.672Z,100490.43
2019-03-31T08:27:30.901Z,100495.18
2019-03-31T08:30:00.903Z,100494.19
2019-03-31T08:32:28.392Z,100489.39
2019-03-31T08:34:53.791Z,100493.70
2019-03-31T08:37:20.330Z,100493.59
2019-03-31T08:39:46.472Z,100499.72
2019-03-31T08:42:12.676Z,100503.38
2019-03-31T08:44:39.759Z,100507.78
2019-03-31T08:47:07.066Z,100511.05
2019-03-31T08:49:33.215Z,100514.84
2019-03-31T08:51:59.518Z,100518.94
2019-03-31T08:54:25.676Z,100524.27
2019-03-31T08:56:51.813Z,100527.16
2019-03-31T08:59:18.034Z,100523.43
2019-03-31T09:01:44.867Z,100523.27
2019-03-31T09:04:11.083Z,100526.44
2019-03-31T09:06:37.231Z,100524.78
2019-03-31T09:09:06.652Z,100527.95
2019-03-31T09:11:32.816Z,100526.14
2019-03-31T09:13:59.036Z,100532.16
2019-03-31T09:16:25.292Z,100533.20
2019-03-31T09:18:51.868Z,100543.05
2019-03-31T09:21:17.998Z,100544.55
2019-03-31T09:23:44.242Z,100539.81
2019-03-31T09:26:10.391Z,100546.67
2019-03-31T09:28:36.593Z,100546.70
2019-03-31T09:31:02.765Z,100556.05
2019-03-31T09:33:29.227Z,100551.59
2019-03-31T09:35:55.361Z,100553.31
2019-03-31T09:38:21.672Z,100551.67
2019-03-31T09:40:47.813Z,100555.11
2019-03-31T09:43:14.026Z,100563.30
2019-03-31T09:45:40.169Z,100569.07
2019-03-31T09:48:06.385Z,100566.70
2019-03-31T09:50:32.807Z,100567.78
2019-03-31T09:52:59.189Z,100568.65
2019-03-31T09:55:25.313Z,100571.88
2019-03-31T09:57:51.527Z,100571.90
2019-03-31T10:00:42.694Z,100578.81
2019-03-31T10:03:08.978Z,100582.38
2019-03-31T10:05:35.091Z,100574.98
2019-03-31T10:08:01.298Z,100577.72
2019-03-31T10:10:30.543Z,100572.80
2019-03-31T10:12:57.082Z,100573.56
2019-03-31T10:15:23.236Z,100581.95
2019-03-31T10:17:49.379Z,100580.67
2019-03-31T10:20:15.610Z,100577.86
2019-03-31T10:22:41.757Z,100574.51
2019-03-31T10:25:13.187Z,100580.34
2019-03-31T10:27:38.667Z,100581.27
2019-03-31T10:30:06.304Z,100583.98
2019-03-31T10:32:32.417Z,100584.66
2019-03-31T10:34:58.650Z,100582.29
2019-03-31T10:37:24.954Z,100581.77
2019-03-31T10:39:51.154Z,100581.22
2019-03-31T10:42:17.291Z,100583.14
2019-03-31T10:44:43.494Z,100579.00
2019-03-31T10:47:09.646Z,100579.49
2019-03-31T10:49:36.148Z,100584.52
2019-03-31T10:52:02.615Z,100577.80
2019-03-31T10:54:28.833Z,100583.94
2019-03-31T10:56:55.238Z,100583.09
2019-03-31T10:59:21.506Z,100576.27
2019-03-31T11:01:47.656Z,100579.94
2019-03-31T11:04:13.863Z,100581.42
2019-03-31T11:06:40.002Z,100587.17
2019-03-31T11:09:06.619Z,100587.05
2019-03-31T11:11:32.753Z,100589.19
2019-03-31T11:13:58.925Z,100586.63
2019-03-31T11:16:25.407Z,100585.05
2019-03-31T11:18:51.544Z,100586.86
2019-03-31T11:21:25.111Z,100588.03
2019-03-31T11:23:51.263Z,100590.52
2019-03-31T11:26:17.478Z,100587.59
2019-03-31T11:28:43.955Z,100591.45
2019-03-31T11:31:18.064Z,100585.16
2019-03-31T11:33:44.602Z,100591.88
2019-03-31T11:36:11.043Z,100596.27
2019-03-31T11:38:37.257Z,100599.70
2019-03-31T11:41:03.464Z,100604.34
2019-03-31T11:43:29.948Z,100606.62
2019-03-31T11:45:56.189Z,100604.81
2019-03-31T11:48:22.424Z,100605.27
2019-03-31T11:50:48.636Z,100606.48
2019-03-31T11:53:14.847Z,100606.66
2019-03-31T11:55:41.080Z,100602.13
2019-03-31T11:58:07.253Z,100603.06
2019-03-31T12:00:35.364Z,100606.80
2019-03-31T12:03:01.767Z,100612.92
2019-03-31T12:05:27.974Z,100606.65
2019-03-31T12:07:54.173Z,100602.72
2019-03-31T12:10:20.400Z,100599.20
2019-03-31T12:12:46.529Z,100607.02
2019-03-31T12:15:12.858Z,100610.79
2019-03-31T12:17:39.000Z,100604.05
2019-03-31T12:20:07.051Z,100604.70
2019-03-31T12:22:33.582Z,100601.45
2019-03-31T12:25:00.043Z,100603.14
2019-03-31T12:27:26.249Z,100605.23
2019-03-31T12:29:52.420Z,100598.71
2019-03-31T12:32:18.706Z,100606.69
2019-03-31T12:34:44.847Z,100606.48
2019-03-31T12:37:11.313Z,100607.32
2019-03-31T12:39:37.504Z,100598.75
2019-03-31T12:42:03.697Z,100601.84
2019-03-31T12:44:30.231Z,100607.64
2019-03-31T12:46:56.672Z,100606.06
2019-03-31T12:49:22.833Z,100601.33
2019-03-31T12:51:49.099Z,100609.30
2019-03-31T12:54:15.305Z,100605.34
2019-03-31T12:56:41.514Z,100596.37
2019-03-31T12:59:07.678Z,100606.89
2019-03-31T13:01:33.929Z,100597.75
2019-03-31T13:04:00.338Z,100598.11
2019-03-31T13:06:26.623Z,100600.48
2019-03-31T13:08:52.769Z,100597.94
2019-03-31T13:11:19.114Z,100599.08
2019-03-31T13:13:45.224Z,100598.38
2019-03-31T13:16:11.388Z,100598.53
2019-03-31T13:18:37.599Z,100597.86
2019-03-31T13:21:03.745Z,100604.70
2019-03-31T13:23:30.005Z,100602.72
2019-03-31T13:25:56.627Z,100596.66
2019-03-31T13:28:22.827Z,100606.59
2019-03-31T13:30:49.003Z,100599.61
2019-03-31T13:33:15.259Z,100595.28
2019-03-31T13:35:41.391Z,100593.16
2019-03-31T13:38:11.369Z,100597.34
2019-03-31T13:40:35.803Z,100592.17
2019-03-31T13:43:02.042Z,100590.75
2019-03-31T13:45:28.184Z,100589.14
2019-03-31T13:47:54.396Z,100593.55
2019-03-31T13:50:20.531Z,100592.95
2019-03-31T13:52:46.909Z,100594.69
2019-03-31T13:55:13.186Z,100592.89
2019-03-31T13:57:40.393Z,100594.96
2019-03-31T14:00:09.246Z,100594.00
2019-03-31T14:02:35.527Z,100597.20
2019-03-31T14:05:01.917Z,100595.40
2019-03-31T14:07:28.109Z,100600.44
2019-03-31T14:09:54.612Z,100602.93
2019-03-31T14:12:20.772Z,100601.45
2019-03-31T14:14:47.082Z,100603.25
2019-03-31T14:17:13.230Z,100601.75
2019-03-31T14:19:39.425Z,100598.55
2019-03-31T14:22:05.971Z,100597.06
2019-03-31T14:24:32.182Z,100595.86
2019-03-31T14:26:58.319Z,100595.84
2019-03-31T14:29:24.543Z,100600.36
2019-03-31T14:31:52.055Z,100603.67
2019-03-31T14:34:18.709Z,100602.69
2019-03-31T14:36:44.861Z,100600.98
2019-03-31T14:39:11.050Z,100603.47
2019-03-31T14:41:37.224Z,100606.81
2019-03-31T14:44:03.424Z,100601.59
2019-03-31T14:46:29.558Z,100599.91
2019-03-31T14:48:55.769Z,100599.73
2019-03-31T14:51:21.915Z,100598.36
2019-03-31T14:53:48.221Z,100605.66
2019-03-31T14:56:14.391Z,100608.45
2019-03-31T14:58:40.597Z,100608.44
2019-03-31T15:01:06.755Z,100613.24
2019-03-31T15:03:32.983Z,100610.73
2019-03-31T15:05:59.432Z,100610.02
2019-03-31T15:08:25.642Z,100615.19
2019-03-31T15:10:51.788Z,100616.13
2019-03-31T15:13:17.930Z,100610.89
2019-03-31T15:15:44.165Z,100613.67
2019-03-31T15:18:10.323Z,100613.99
2019-03-31T15:20:36.533Z,100614.43
2019-03-31T15:23:03.066Z,100618.88
2019-03-31T15:25:29.272Z,100615.34
2019-03-31T15:27:55.423Z,100611.13
2019-03-31T15:30:21.627Z,100613.28
2019-03-31T15:32:47.790Z,100617.09
2019-03-31T15:35:14.102Z,100614.09
2019-03-31T15:37:40.804Z,100614.56
2019-03-31T15:40:07.312Z,100620.37
2019-03-31T15:42:33.484Z,100620.53
2019-03-31T15:44:59.688Z,100619.31
2019-03-31T15:47:25.835Z,100619.47
2019-03-31T15:49:52.047Z,100622.61
2019-03-31T15:52:18.320Z,100620.40
2019-03-31T15:54:44.653Z,100620.67
2019-03-31T15:57:10.853Z,100622.92
2019-03-31T15:59:37.064Z,100628.34
2019-03-31T16:02:03.530Z,100628.27
2019-03-31T16:04:29.744Z,100623.06
2019-03-31T16:06:55.891Z,100625.19
2019-03-31T16:09:24.000Z,100626.66
2019-03-31T16:11:53.859Z,100626.07
2019-03-31T16:14:18.562Z,100632.37
2019-03-31T16:16:44.793Z,100632.84
2019-03-31T16:19:10.944Z,100632.45
2019-03-31T16:21:37.199Z,100633.26
2019-03-31T16:24:03.350Z,100634.89
2019-03-31T16:26:29.656Z,100637.06
2019-03-31T16:28:55.814Z,100640.69
2019-03-31T16:31:22.026Z,100635.54
2019-03-31T16:33:48.195Z,100642.30
2019-03-31T16:36:14.414Z,100644.55
2019-03-31T16:38:40.559Z,100644.66
2019-03-31T16:41:06.837Z,100643.46
2019-03-31T16:43:32.997Z,100643.56
2019-03-31T16:45:59.213Z,100639.05
2019-03-31T16:48:25.382Z,100645.51
2019-03-31T16:50:51.600Z,100643.81
2019-03-31T16:53:17.836Z,100647.77
2019-03-31T16:55:44.070Z,100645.22
2019-03-31T16:58:10.295Z,100643.83
2019-03-31T17:00:36.530Z,100648.58
2019-03-31T17:03:03.178Z,100652.97
2019-03-31T17:05:29.394Z,100651.55
2019-03-31T17:07:55.881Z,100659.62
2019-03-31T17:10:22.173Z,100658.05
2019-03-31T17:12:48.350Z,100661.64
2019-03-31T17:15:14.709Z,100663.36
2019-03-31T17:17:47.847Z,100659.64
2019-03-31T17:20:19.319Z,100660.20
2019-03-31T17:22:45.554Z,100668.59
2019-03-31T17:25:11.711Z,100668.22
2019-03-31T17:27:38.555Z,100666.66
2019-03-31T17:30:06.372Z,100669.90
2019-03-31T17:32:32.697Z,100673.31
2019-03-31T17:34:58.862Z,100676.77
2019-03-31T17:37:25.087Z,100680.33
2019-03-31T17:40:05.073Z,100686.10
2019-03-31T17:42:20.038Z,100683.91
2019-03-31T17:44:46.438Z,100685.52
2019-03-31T17:47:12.646Z,100693.66
2019-03-31T17:49:38.815Z,100693.49
2019-03-31T17:52:05.389Z,100690.50
2019-03-31T17:54:31.532Z,100696.73
2019-03-31T17:56:58.240Z,100697.02
2019-03-31T17:59:24.708Z,100702.78
2019-03-31T18:01:50.919Z,100700.21
2019-03-31T18:04:17.081Z,100703.16
2019-03-31T18:06:43.239Z,100708.67
2019-03-31T18:09:09.678Z,100712.33
2019-03-31T18:11:35.878Z,100712.13
2019-03-31T18:14:02.104Z,100709.75
2019-03-31T18:16:28.267Z,100718.00
2019-03-31T18:18:54.797Z,100723.06
2019-03-31T18:21:21.084Z,100717.70
2019-03-31T18:23:47.309Z,100727.20
2019-03-31T18:26:13.494Z,100731.26
2019-03-31T18:28:39.829Z,100737.97
2019-03-31T18:31:06.136Z,100738.66
2019-03-31T18:33:32.603Z,100735.66
2019-03-31T18:35:58.758Z,100747.08
2019-03-31T18:38:25.076Z,100745.59
2019-03-31T18:40:51.329Z,100739.11
2019-03-31T18:43:17.612Z,100744.09
2019-03-31T18:45:43.720Z,100750.84
2019-03-31T18:48:09.975Z,100754.33
2019-03-31T18:50:36.128Z,100752.84
2019-03-31T18:53:03.260Z,100758.16
2019-03-31T18:55:43.842Z,100762.14
2019-03-31T18:58:23.926Z,100760.47
2019-03-31T19:01:04.374Z,100759.92
2019-03-31T19:03:38.552Z,100764.38
2019-03-31T19:06:24.069Z,100760.37
2019-03-31T19:08:55.242Z,100764.45
2019-03-31T19:11:29.643Z,100760.84
2019-03-31T19:14:12.866Z,100763.20
2019-03-31T19:16:59.314Z,100763.19
2019-03-31T19:19:34.562Z,100766.66
2019-03-31T19:22:05.429Z,100766.53
2019-03-31T19:24:39.676Z,100767.02
2019-03-31T19:27:17.019Z,100766.55
2019-03-31T19:29:45.330Z,100772.99
2019-03-31T19:32:30.087Z,100774.40
2019-03-31T19:34:58.500Z,100776.70
2019-03-31T19:37:41.676Z,100772.44
2019-03-31T19:40:21.944Z,100775.56
2019-03-31T19:42:56.075Z,100776.85
2019-03-31T19:45:33.804Z,100778.86
2019-03-31T19:48:13.928Z,100776.41
2019-03-31T19:50:47.769Z,100775.38
2019-03-31T19:53:32.329Z,100781.85
2019-03-31T19:56:07.452Z,100782.77
2019-03-31T19:58:46.976Z,100780.26
2019-03-31T20:01:21.364Z,100778.41
2019-03-31T20:03:49.668Z,100782.06
2019-03-31T20:06:17.880Z,100787.09
2019-03-31T20:08:55.168Z,100786.79
2019-03-31T20:11:35.869Z,100784.34
2019-03-31T20:14:06.596Z,100792.13
2019-03-31T20:16:41.121Z,100790.65
2019-03-31T20:19:11.966Z,100789.84
2019-03-31T20:21:40.089Z,100792.17
2019-03-31T20:24:11.035Z,100795.49
2019-03-31T20:26:54.402Z,100790.34
2019-03-31T20:29:39.170Z,100790.50
2019-03-31T20:32:22.565Z,100794.79
2019-03-31T20:34:59.988Z,100789.95
2019-03-31T20:37:31.120Z,100793.78
2019-03-31T20:40:16.330Z,100792.80
2019-03-31T20:42:56.351Z,100797.31
2019-03-31T20:45:22.491Z,100797.77
2019-03-31T20:47:48.713Z,100797.34
2019-03-31T20:50:14.914Z,100796.20
2019-03-31T20:52:41.221Z,100799.74
2019-03-31T20:55:16.265Z,100799.25
2019-03-31T20:57:36.093Z,100800.45
2019-03-31T21:00:06.543Z,100804.13
2019-03-31T21:02:32.773Z,100801.69
2019-03-31T21:04:58.935Z,100812.95
2019-03-31T21:07:25.142Z,100820.44
2019-03-31T21:09:51.603Z,100824.25
2019-03-31T21:12:24.238Z,100818.48
2019-03-31T21:14:50.416Z,100825.00
2019-03-31T21:17:16.554Z,100826.89
2019-03-31T21:19:42.895Z,100825.12
2019-03-31T21:22:09.108Z,100831.59
2019-03-31T21:24:35.254Z,100832.00
2019-03-31T21:27:01.679Z,100832.22
2019-03-31T21:29:30.238Z,100838.73
2019-03-31T21:31:56.451Z,100833.61
2019-03-31T21:34:22.672Z,100838.09
2019-03-31T21:36:49.610Z,100851.57
2019-03-31T21:39:15.839Z,100851.16
2019-03-31T21:41:43.056Z,100852.99
2019-03-31T21:44:09.359Z,100855.19
2019-03-31T21:46:35.503Z,100855.53
2019-03-31T21:49:01.718Z,100857.90
2019-03-31T21:51:27.853Z,100861.69
2019-03-31T21:53:54.208Z,100864.00
2019-03-31T21:56:20.381Z,100861.91
2019-03-31T21:58:46.663Z,100869.89
2019-03-31T22:01:13.256Z,100874.11
2019-03-31T22:03:39.922Z,100873.69
2019-03-31T22:06:06.069Z,100866.72
2019-03-31T22:08:32.267Z,100868.31
2019-03-31T22:10:58.406Z,100874.08
2019-03-31T22:13:24.610Z,100879.00
2019-03-31T22:15:50.776Z,100875.93
2019-03-31T22:18:17.001Z,100876.98
2019-03-31T22:20:43.130Z,100880.29
2019-03-31T22:23:09.275Z,100876.91
2019-03-31T22:25:35.485Z,100885.44
2019-03-31T22:28:01.902Z,100890.09
2019-03-31T22:30:28.506Z,100884.63
2019-03-31T22:32:55.028Z,100886.47
2019-03-31T22:35:26.733Z,100888.61
2019-03-31T22:37:52.894Z,100889.58
2019-03-31T22:40:19.107Z,100887.33
2019-03-31T22:42:45.590Z,100883.78
2019-03-31T22:45:11.792Z,100884.49
2019-03-31T22:47:37.942Z,100887.84
2019-03-31T22:50:04.831Z,100886.72
2019-03-31T22:52:31.046Z,100885.93
2019-03-31T22:54:57.261Z,100888.38
2019-03-31T22:57:23.740Z,100886.05
2019-03-31T22:59:49.983Z,100880.55
2019-03-31T23:02:16.122Z,100883.08
2019-03-31T23:04:42.317Z,100885.53
2019-03-31T23:07:08.778Z,100884.14
2019-03-31T23:09:34.982Z,100894.70
2019-03-31T23:12:01.131Z,100896.74
2019-03-31T23:14:27.384Z,100898.20
2019-03-31T23:16:53.523Z,100901.38
2019-03-31T23:19:20.034Z,100903.34
2019-03-31T23:21:46.309Z,100899.46
2019-03-31T23:24:12.488Z,100901.00
2019-03-31T23:26:38.647Z,100900.66
2019-03-31T23:29:04.808Z,100906.28
2019-03-31T23:31:31.019Z,100901.79
2019-03-31T23:33:57.160Z,100896.92
2019-03-31T23:36:23.708Z,100903.05
2019-03-31T23:38:50.072Z,100902.80
2019-03-31T23:41:16.268Z,100897.53
2019-03-31T23:43:42.453Z,100893.48
2019-03-31T23:46:14.976Z,100899.77
2019-03-31T23:48:41.122Z,100898.19
2019-03-31T23:51:20.437Z,100896.62
2019-03-31T23:53:46.664Z,100907.52
2019-03-31T23:56:12.812Z,100908.05
2019-03-31T23:58:39.016Z,100903.11
